sensor_id;sensor_type;location;lat;lon;timestamp;temperature;humidity
1546;DHT22;766;51.502;9.752;2022-10-03T00:02:22;9.40;99.90
1546;DHT22;766;51.502;9.752;2022-10-03T00:05:02;9.50;99.90
1546;DHT22;766;51.502;9.752;2022-10-03T00:07:49;9.40;99.90
1546;DHT22;766;51.502;9.752;2022-10-03T00:10:27;9.40;99.90
1546;DHT22;766;51.502;9.752;2022-10-03T00:13:06;9.40;99.90
1546;DHT22;766;51.502;9.752;2022-10-03T00:15:41;9.40;99.90
1546;DHT22;766;51.502;9.752;2022-10-03T00:18:28;9.50;99.90
1546;DHT22;766;51.502;9.752;2022-10-03T00:21:08;9.50;99.90
1546;DHT22;766;51.502;9.752;2022-10-03T00:23:48;9.50;99.90
1546;DHT22;766;51.502;9.752;2022-10-03T00:26:24;9.50;99.90
1546;DHT22;766;51.502;9.752;2022-10-03T00:29:13;9.60;99.90
1546;DHT22;766;51.502;9.752;2022-10-03T00:31:52;9.70;99.90
1546;DHT22;766;51.502;9.752;2022-10-03T00:34:37;9.70;99.90
1546;DHT22;766;51.502;9.752;2022-10-03T00:37:25;9.70;99.90
1546;DHT22;766;51.502;9.752;2022-10-03T00:46:45;9.70;99.90
1546;DHT22;766;51.502;9.752;2022-10-03T00:52:52;9.80;99.90
1546;DHT22;766;51.502;9.752;2022-10-03T00:55:36;9.70;99.90
1546;DHT22;766;51.502;9.752;2022-10-03T01:01:21;9.80;99.90
1546;DHT22;766;51.502;9.752;2022-10-03T01:03:59;9.80;99.90
1546;DHT22;766;51.502;9.752;2022-10-03T01:06:39;9.80;99.90
1546;DHT22;766;51.502;9.752;2022-10-03T01:09:27;9.80;99.90
1546;DHT22;766;51.502;9.752;2022-10-03T01:12:25;9.80;99.90
1546;DHT22;766;51.502;9.752;2022-10-03T01:15:08;9.80;99.90
1546;DHT22;766;51.502;9.752;2022-10-03T01:17:45;9.90;99.90
1546;DHT22;766;51.502;9.752;2022-10-03T01:20:32;9.90;99.90
1546;DHT22;766;51.502;9.752;2022-10-03T01:23:23;9.90;99.90
1546;DHT22;766;51.502;9.752;2022-10-03T01:26:06;9.90;99.90
1546;DHT22;766;51.502;9.752;2022-10-03T01:28:46;9.90;99.90
1546;DHT22;766;51.502;9.752;2022-10-03T01:31:40;9.90;99.90
1546;DHT22;766;51.502;9.752;2022-10-03T01:34:17;9.90;99.90
1546;DHT22;766;51.502;9.752;2022-10-03T01:37:03;9.90;99.90
1546;DHT22;766;51.502;9.752;2022-10-03T01:39:38;9.90;99.90
1546;DHT22;766;51.502;9.752;2022-10-03T01:42:13;9.90;99.90
1546;DHT22;766;51.502;9.752;2022-10-03T01:44:58;9.90;99.90
1546;DHT22;766;51.502;9.752;2022-10-03T01:47:35;9.90;99.90
1546;DHT22;766;51.502;9.752;2022-10-03T01:50:15;9.80;99.90
1546;DHT22;766;51.502;9.752;2022-10-03T01:52:52;9.90;99.90
1546;DHT22;766;51.502;9.752;2022-10-03T01:55:30;9.90;99.90
1546;DHT22;766;51.502;9.752;2022-10-03T01:58:04;9.90;99.90
1546;DHT22;766;51.502;9.752;2022-10-03T02:00:43;9.90;99.90
1546;DHT22;766;51.502;9.752;2022-10-03T02:03:16;9.90;99.90
1546;DHT22;766;51.502;9.752;2022-10-03T02:05:54;9.90;99.90
1546;DHT22;766;51.502;9.752;2022-10-03T02:11:33;10.00;99.90
1546;DHT22;766;51.502;9.752;2022-10-03T02:14:15;10.10;99.90
1546;DHT22;766;51.502;9.752;2022-10-03T02:16:57;10.10;99.90
1546;DHT22;766;51.502;9.752;2022-10-03T02:19:29;10.00;99.90
1546;DHT22;766;51.502;9.752;2022-10-03T02:22:02;10.00;99.90
1546;DHT22;766;51.502;9.752;2022-10-03T02:24:42;10.10;99.90
1546;DHT22;766;51.502;9.752;2022-10-03T02:27:47;10.10;99.90
1546;DHT22;766;51.502;9.752;2022-10-03T02:30:20;10.00;99.90
1546;DHT22;766;51.502;9.752;2022-10-03T02:36:38;10.10;99.90
1546;DHT22;766;51.502;9.752;2022-10-03T02:39:37;10.10;99.90
1546;DHT22;766;51.502;9.752;2022-10-03T02:42:48;10.10;99.90
1546;DHT22;766;51.502;9.752;2022-10-03T02:54:56;10.10;99.90
1546;DHT22;766;51.502;9.752;2022-10-03T03:06:56;10.20;99.90
1546;DHT22;766;51.502;9.752;2022-10-03T03:10:10;10.20;99.90
1546;DHT22;766;51.502;9.752;2022-10-03T03:13:20;10.10;99.90
1546;DHT22;766;51.502;9.752;2022-10-03T03:19:33;10.10;99.90
1546;DHT22;766;51.502;9.752;2022-10-03T03:22:17;10.00;99.90
1546;DHT22;766;51.502;9.752;2022-10-03T03:25:15;10.10;99.90
1546;DHT22;766;51.502;9.752;2022-10-03T03:28:04;10.10;99.90
1546;DHT22;766;51.502;9.752;2022-10-03T03:30:40;10.10;99.90
1546;DHT22;766;51.502;9.752;2022-10-03T03:33:19;10.10;99.90
1546;DHT22;766;51.502;9.752;2022-10-03T03:35:59;10.10;99.90
1546;DHT22;766;51.502;9.752;2022-10-03T03:38:34;10.10;99.90
1546;DHT22;766;51.502;9.752;2022-10-03T03:41:30;10.10;99.90
1546;DHT22;766;51.502;9.752;2022-10-03T03:44:26;10.20;99.90
1546;DHT22;766;51.502;9.752;2022-10-03T03:47:11;10.10;99.90
1546;DHT22;766;51.502;9.752;2022-10-03T03:49:55;10.10;99.90
1546;DHT22;766;51.502;9.752;2022-10-03T03:52:42;10.10;99.90
1546;DHT22;766;51.502;9.752;2022-10-03T03:55:50;10.10;99.90
1546;DHT22;766;51.502;9.752;2022-10-03T03:58:34;10.10;99.90
1546;DHT22;766;51.502;9.752;2022-10-03T04:04:15;10.20;99.90
1546;DHT22;766;51.502;9.752;2022-10-03T04:06:56;10.20;99.90
1546;DHT22;766;51.502;9.752;2022-10-03T04:10:06;10.10;99.90
1546;DHT22;766;51.502;9.752;2022-10-03T04:13:09;10.20;99.90
1546;DHT22;766;51.502;9.752;2022-10-03T04:15:54;10.20;99.90
1546;DHT22;766;51.502;9.752;2022-10-03T04:18:54;10.20;99.90
1546;DHT22;766;51.502;9.752;2022-10-03T04:21:51;10.20;99.90
1546;DHT22;766;51.502;9.752;2022-10-03T04:24:51;10.20;99.90
1546;DHT22;766;51.502;9.752;2022-10-03T04:27:37;10.20;99.90
1546;DHT22;766;51.502;9.752;2022-10-03T04:30:12;10.20;99.90
1546;DHT22;766;51.502;9.752;2022-10-03T04:32:54;10.20;99.90
1546;DHT22;766;51.502;9.752;2022-10-03T04:36:06;10.10;99.90
1546;DHT22;766;51.502;9.752;2022-10-03T04:38:48;10.10;99.90
1546;DHT22;766;51.502;9.752;2022-10-03T04:41:27;10.10;99.90
1546;DHT22;766;51.502;9.752;2022-10-03T04:44:08;10.20;99.90
1546;DHT22;766;51.502;9.752;2022-10-03T04:46:43;10.20;99.90
1546;DHT22;766;51.502;9.752;2022-10-03T04:49:26;10.10;99.90
1546;DHT22;766;51.502;9.752;2022-10-03T04:52:03;10.10;99.90
1546;DHT22;766;51.502;9.752;2022-10-03T04:54:48;10.10;99.90
1546;DHT22;766;51.502;9.752;2022-10-03T04:57:35;10.10;99.90
1546;DHT22;766;51.502;9.752;2022-10-03T05:00:19;10.10;99.90
1546;DHT22;766;51.502;9.752;2022-10-03T05:02:54;10.20;99.90
1546;DHT22;766;51.502;9.752;2022-10-03T05:05:39;10.20;99.90
1546;DHT22;766;51.502;9.752;2022-10-03T05:08:27;10.20;99.90
1546;DHT22;766;51.502;9.752;2022-10-03T05:11:09;10.10;99.90
1546;DHT22;766;51.502;9.752;2022-10-03T05:13:49;10.20;99.90
1546;DHT22;766;51.502;9.752;2022-10-03T05:16:26;10.30;99.90
1546;DHT22;766;51.502;9.752;2022-10-03T05:19:08;10.30;99.90
1546;DHT22;766;51.502;9.752;2022-10-03T05:21:46;10.20;99.90
1546;DHT22;766;51.502;9.752;2022-10-03T05:24:22;10.20;99.90
1546;DHT22;766;51.502;9.752;2022-10-03T05:26:58;10.10;99.90
1546;DHT22;766;51.502;9.752;2022-10-03T05:29:36;10.20;99.90
1546;DHT22;766;51.502;9.752;2022-10-03T05:32:16;10.20;99.90
1546;DHT22;766;51.502;9.752;2022-10-03T05:34:59;10.10;99.90
1546;DHT22;766;51.502;9.752;2022-10-03T05:37:49;10.10;99.90
1546;DHT22;766;51.502;9.752;2022-10-03T05:40:24;10.20;99.90
1546;DHT22;766;51.502;9.752;2022-10-03T05:43:03;10.20;99.90
1546;DHT22;766;51.502;9.752;2022-10-03T05:45:47;10.40;99.90
1546;DHT22;766;51.502;9.752;2022-10-03T05:48:29;10.30;99.90
1546;DHT22;766;51.502;9.752;2022-10-03T05:51:11;10.20;99.90
1546;DHT22;766;51.502;9.752;2022-10-03T05:57:05;10.20;99.90
1546;DHT22;766;51.502;9.752;2022-10-03T05:59:55;10.10;99.90
1546;DHT22;766;51.502;9.752;2022-10-03T06:02:53;10.20;99.90
1546;DHT22;766;51.502;9.752;2022-10-03T06:05:40;10.20;99.90
1546;DHT22;766;51.502;9.752;2022-10-03T06:08:39;10.30;99.90
1546;DHT22;766;51.502;9.752;2022-10-03T06:11:30;10.30;99.90
1546;DHT22;766;51.502;9.752;2022-10-03T06:14:35;10.40;99.90
1546;DHT22;766;51.502;9.752;2022-10-03T06:17:34;10.40;99.90
1546;DHT22;766;51.502;9.752;2022-10-03T06:20:31;10.40;99.90
1546;DHT22;766;51.502;9.752;2022-10-03T06:23:45;10.50;99.90
1546;DHT22;766;51.502;9.752;2022-10-03T06:29:47;10.40;99.90
1546;DHT22;766;51.502;9.752;2022-10-03T06:33:02;10.30;99.90
1546;DHT22;766;51.502;9.752;2022-10-03T06:35:53;10.40;99.90
1546;DHT22;766;51.502;9.752;2022-10-03T06:42:10;10.30;99.90
1546;DHT22;766;51.502;9.752;2022-10-03T06:47:51;10.30;99.90
1546;DHT22;766;51.502;9.752;2022-10-03T06:56:50;10.30;99.90
1546;DHT22;766;51.502;9.752;2022-10-03T07:00:01;10.30;99.90
1546;DHT22;766;51.502;9.752;2022-10-03T07:09:18;10.40;99.90
1546;DHT22;766;51.502;9.752;2022-10-03T07:22:07;10.70;99.90
1546;DHT22;766;51.502;9.752;2022-10-03T07:25:18;10.80;99.90
1546;DHT22;766;51.502;9.752;2022-10-03T07:28:19;10.70;99.90
1546;DHT22;766;51.502;9.752;2022-10-03T07:31:01;10.80;99.90
1546;DHT22;766;51.502;9.752;2022-10-03T07:34:05;10.80;99.90
1546;DHT22;766;51.502;9.752;2022-10-03T07:36:56;10.80;99.90
1546;DHT22;766;51.502;9.752;2022-10-03T07:46:21;10.80;99.90
1546;DHT22;766;51.502;9.752;2022-10-03T07:49:20;10.80;99.90
1546;DHT22;766;51.502;9.752;2022-10-03T07:52:11;10.90;99.90
1546;DHT22;766;51.502;9.752;2022-10-03T07:55:21;10.90;99.90
1546;DHT22;766;51.502;9.752;2022-10-03T07:58:23;11.10;99.90
1546;DHT22;766;51.502;9.752;2022-10-03T08:01:15;11.20;99.90
1546;DHT22;766;51.502;9.752;2022-10-03T08:04:19;11.20;99.90
1546;DHT22;766;51.502;9.752;2022-10-03T08:07:04;11.20;99.90
1546;DHT22;766;51.502;9.752;2022-10-03T08:09:54;11.30;99.90
1546;DHT22;766;51.502;9.752;2022-10-03T08:13:07;11.40;99.90
1546;DHT22;766;51.502;9.752;2022-10-03T08:16:00;11.40;99.90
1546;DHT22;766;51.502;9.752;2022-10-03T08:21:56;11.60;99.90
1546;DHT22;766;51.502;9.752;2022-10-03T08:24:54;11.70;99.90
1546;DHT22;766;51.502;9.752;2022-10-03T08:27:50;11.80;99.90
1546;DHT22;766;51.502;9.752;2022-10-03T08:30:33;11.80;99.90
1546;DHT22;766;51.502;9.752;2022-10-03T08:33:30;12.00;99.90
1546;DHT22;766;51.502;9.752;2022-10-03T08:36:35;12.00;99.90
1546;DHT22;766;51.502;9.752;2022-10-03T08:39:11;12.20;99.90
1546;DHT22;766;51.502;9.752;2022-10-03T08:42:10;12.60;99.90
1546;DHT22;766;51.502;9.752;2022-10-03T08:45:07;13.10;99.90
1546;DHT22;766;51.502;9.752;2022-10-03T08:54:22;13.20;99.90
1546;DHT22;766;51.502;9.752;2022-10-03T08:57:25;13.10;99.90
1546;DHT22;766;51.502;9.752;2022-10-03T09:00:13;12.80;99.90
1546;DHT22;766;51.502;9.752;2022-10-03T09:03:10;12.60;99.90
1546;DHT22;766;51.502;9.752;2022-10-03T09:18:54;12.80;99.90
1546;DHT22;766;51.502;9.752;2022-10-03T09:25:09;12.90;99.90
1546;DHT22;766;51.502;9.752;2022-10-03T09:31:16;12.80;99.90
1546;DHT22;766;51.502;9.752;2022-10-03T09:34:10;12.80;99.90
1546;DHT22;766;51.502;9.752;2022-10-03T09:37:19;12.80;99.90
1546;DHT22;766;51.502;9.752;2022-10-03T09:43:29;12.90;99.90
1546;DHT22;766;51.502;9.752;2022-10-03T09:46:21;13.00;99.90
1546;DHT22;766;51.502;9.752;2022-10-03T09:49:21;13.10;99.90
1546;DHT22;766;51.502;9.752;2022-10-03T09:55:28;13.00;99.90
1546;DHT22;766;51.502;9.752;2022-10-03T09:58:25;13.00;99.90
1546;DHT22;766;51.502;9.752;2022-10-03T10:01:10;13.00;99.90
1546;DHT22;766;51.502;9.752;2022-10-03T10:07:39;13.50;99.90
1546;DHT22;766;51.502;9.752;2022-10-03T10:13:32;13.60;99.90
1546;DHT22;766;51.502;9.752;2022-10-03T10:16:49;13.60;99.90
1546;DHT22;766;51.502;9.752;2022-10-03T10:19:34;13.90;99.90
1546;DHT22;766;51.502;9.752;2022-10-03T10:25:36;14.70;99.90
1546;DHT22;766;51.502;9.752;2022-10-03T10:28:51;15.00;99.90
1546;DHT22;766;51.502;9.752;2022-10-03T10:38:16;15.40;99.90
1546;DHT22;766;51.502;9.752;2022-10-03T10:47:11;15.10;99.90
1546;DHT22;766;51.502;9.752;2022-10-03T10:59:48;14.60;99.90
1546;DHT22;766;51.502;9.752;2022-10-03T11:05:57;14.50;99.90
1546;DHT22;766;51.502;9.752;2022-10-03T11:09:08;14.50;99.90
1546;DHT22;766;51.502;9.752;2022-10-03T11:15:51;14.30;99.90
1546;DHT22;766;51.502;9.752;2022-10-03T11:25:20;14.40;99.90
1546;DHT22;766;51.502;9.752;2022-10-03T11:31:26;15.80;99.90
1546;DHT22;766;51.502;9.752;2022-10-03T11:37:26;16.80;99.90
1546;DHT22;766;51.502;9.752;2022-10-03T11:46:28;18.30;99.90
1546;DHT22;766;51.502;9.752;2022-10-03T11:49:03;18.20;99.90
1546;DHT22;766;51.502;9.752;2022-10-03T11:51:41;18.00;99.90
1546;DHT22;766;51.502;9.752;2022-10-03T11:54:20;17.40;99.90
1546;DHT22;766;51.502;9.752;2022-10-03T11:57:01;16.60;99.90
1546;DHT22;766;51.502;9.752;2022-10-03T11:59:50;16.20;99.90
1546;DHT22;766;51.502;9.752;2022-10-03T12:02:43;16.00;99.90
1546;DHT22;766;51.502;9.752;2022-10-03T12:05:26;16.10;99.90
1546;DHT22;766;51.502;9.752;2022-10-03T12:08:09;15.90;99.90
1546;DHT22;766;51.502;9.752;2022-10-03T12:11:05;15.80;99.90
1546;DHT22;766;51.502;9.752;2022-10-03T12:13:40;15.60;99.90
1546;DHT22;766;51.502;9.752;2022-10-03T12:16:16;15.50;99.90
1546;DHT22;766;51.502;9.752;2022-10-03T12:18:55;15.70;99.90
1546;DHT22;766;51.502;9.752;2022-10-03T12:21:34;15.70;99.90
1546;DHT22;766;51.502;9.752;2022-10-03T12:24:23;16.20;99.90
1546;DHT22;766;51.502;9.752;2022-10-03T12:26:59;16.60;99.90
1546;DHT22;766;51.502;9.752;2022-10-03T12:29:33;16.80;99.90
1546;DHT22;766;51.502;9.752;2022-10-03T12:32:21;16.70;99.90
1546;DHT22;766;51.502;9.752;2022-10-03T12:35:04;16.90;99.90
1546;DHT22;766;51.502;9.752;2022-10-03T12:37:51;16.90;99.90
1546;DHT22;766;51.502;9.752;2022-10-03T12:40:27;16.90;99.90
1546;DHT22;766;51.502;9.752;2022-10-03T12:43:06;16.60;99.90
1546;DHT22;766;51.502;9.752;2022-10-03T12:45:39;16.30;99.90
1546;DHT22;766;51.502;9.752;2022-10-03T12:48:29;16.30;99.90
1546;DHT22;766;51.502;9.752;2022-10-03T12:51:12;16.50;99.90
1546;DHT22;766;51.502;9.752;2022-10-03T12:53:50;16.60;99.90
1546;DHT22;766;51.502;9.752;2022-10-03T12:56:29;16.30;99.90
1546;DHT22;766;51.502;9.752;2022-10-03T12:59:19;15.90;99.90
1546;DHT22;766;51.502;9.752;2022-10-03T13:02:07;15.80;99.90
1546;DHT22;766;51.502;9.752;2022-10-03T13:04:48;15.80;99.90
1546;DHT22;766;51.502;9.752;2022-10-03T13:07:26;15.60;99.90
1546;DHT22;766;51.502;9.752;2022-10-03T13:10:11;15.60;99.90
1546;DHT22;766;51.502;9.752;2022-10-03T13:12:46;15.80;99.90
1546;DHT22;766;51.502;9.752;2022-10-03T13:15:44;15.50;99.90
1546;DHT22;766;51.502;9.752;2022-10-03T13:21:20;15.30;99.90
1546;DHT22;766;51.502;9.752;2022-10-03T13:24:25;15.30;99.90
1546;DHT22;766;51.502;9.752;2022-10-03T13:27:10;15.30;99.90
1546;DHT22;766;51.502;9.752;2022-10-03T13:29:44;15.70;99.90
1546;DHT22;766;51.502;9.752;2022-10-03T13:32:23;16.00;99.90
1546;DHT22;766;51.502;9.752;2022-10-03T13:35:10;16.20;99.90
1546;DHT22;766;51.502;9.752;2022-10-03T13:38:26;16.20;99.90
1546;DHT22;766;51.502;9.752;2022-10-03T13:41:07;16.00;99.90
1546;DHT22;766;51.502;9.752;2022-10-03T13:43:42;15.70;99.90
1546;DHT22;766;51.502;9.752;2022-10-03T13:46:15;15.40;99.90
1546;DHT22;766;51.502;9.752;2022-10-03T13:48:54;15.20;99.90
1546;DHT22;766;51.502;9.752;2022-10-03T13:51:35;15.20;99.90
1546;DHT22;766;51.502;9.752;2022-10-03T13:54:10;15.50;99.90
1546;DHT22;766;51.502;9.752;2022-10-03T13:56:53;15.60;99.90
1546;DHT22;766;51.502;9.752;2022-10-03T13:59:47;15.70;99.90
1546;DHT22;766;51.502;9.752;2022-10-03T14:02:41;15.90;99.90
1546;DHT22;766;51.502;9.752;2022-10-03T14:05:33;15.90;99.90
1546;DHT22;766;51.502;9.752;2022-10-03T14:08:10;15.80;99.90
1546;DHT22;766;51.502;9.752;2022-10-03T14:11:06;15.60;99.90
1546;DHT22;766;51.502;9.752;2022-10-03T14:13:57;15.70;99.90
1546;DHT22;766;51.502;9.752;2022-10-03T14:16:30;15.80;99.90
1546;DHT22;766;51.502;9.752;2022-10-03T14:19:05;15.90;99.90
1546;DHT22;766;51.502;9.752;2022-10-03T14:21:54;15.90;99.90
1546;DHT22;766;51.502;9.752;2022-10-03T14:27:35;15.90;99.90
1546;DHT22;766;51.502;9.752;2022-10-03T14:30:09;16.00;99.90
1546;DHT22;766;51.502;9.752;2022-10-03T14:32:47;16.00;99.90
1546;DHT22;766;51.502;9.752;2022-10-03T14:35:34;15.90;99.90
1546;DHT22;766;51.502;9.752;2022-10-03T14:38:24;15.90;99.90
1546;DHT22;766;51.502;9.752;2022-10-03T14:41:17;15.90;99.90
1546;DHT22;766;51.502;9.752;2022-10-03T14:43:51;15.90;99.90
1546;DHT22;766;51.502;9.752;2022-10-03T14:46:25;15.80;99.90
1546;DHT22;766;51.502;9.752;2022-10-03T14:48:57;15.70;99.90
1546;DHT22;766;51.502;9.752;2022-10-03T14:51:31;15.70;99.90
1546;DHT22;766;51.502;9.752;2022-10-03T14:54:06;15.60;99.90
1546;DHT22;766;51.502;9.752;2022-10-03T14:56:41;15.50;99.90
1546;DHT22;766;51.502;9.752;2022-10-03T14:59:19;15.40;99.90
1546;DHT22;766;51.502;9.752;2022-10-03T15:02:20;15.40;99.90
1546;DHT22;766;51.502;9.752;2022-10-03T15:04:52;15.20;99.90
1546;DHT22;766;51.502;9.752;2022-10-03T15:07:32;15.10;99.90
1546;DHT22;766;51.502;9.752;2022-10-03T15:10:06;15.00;99.90
1546;DHT22;766;51.502;9.752;2022-10-03T15:12:37;15.10;99.90
1546;DHT22;766;51.502;9.752;2022-10-03T15:15:10;14.80;99.90
1546;DHT22;766;51.502;9.752;2022-10-03T15:17:48;14.80;99.90
1546;DHT22;766;51.502;9.752;2022-10-03T15:20:21;14.70;99.90
1546;DHT22;766;51.502;9.752;2022-10-03T15:22:56;14.60;99.90
1546;DHT22;766;51.502;9.752;2022-10-03T15:25:27;14.60;99.90
1546;DHT22;766;51.502;9.752;2022-10-03T15:28:04;14.60;99.90
1546;DHT22;766;51.502;9.752;2022-10-03T15:30:36;14.50;99.90
1546;DHT22;766;51.502;9.752;2022-10-03T15:33:13;14.50;99.90
1546;DHT22;766;51.502;9.752;2022-10-03T15:35:46;14.50;99.90
1546;DHT22;766;51.502;9.752;2022-10-03T15:38:19;14.40;99.90
1546;DHT22;766;51.502;9.752;2022-10-03T15:41:06;14.30;99.90
1546;DHT22;766;51.502;9.752;2022-10-03T15:43:42;14.30;99.90
1546;DHT22;766;51.502;9.752;2022-10-03T15:46:22;14.20;99.90
1546;DHT22;766;51.502;9.752;2022-10-03T15:49:05;14.10;99.90
1546;DHT22;766;51.502;9.752;2022-10-03T15:51:35;14.10;99.90
1546;DHT22;766;51.502;9.752;2022-10-03T15:54:07;14.00;99.90
1546;DHT22;766;51.502;9.752;2022-10-03T15:56:38;13.90;99.90
1546;DHT22;766;51.502;9.752;2022-10-03T15:59:18;13.80;99.90
1546;DHT22;766;51.502;9.752;2022-10-03T16:01:49;13.80;99.90
1546;DHT22;766;51.502;9.752;2022-10-03T16:04:41;13.80;99.90
1546;DHT22;766;51.502;9.752;2022-10-03T16:07:15;13.60;99.90
1546;DHT22;766;51.502;9.752;2022-10-03T16:09:51;13.70;99.90
1546;DHT22;766;51.502;9.752;2022-10-03T16:12:54;13.70;99.90
1546;DHT22;766;51.502;9.752;2022-10-03T16:15:31;13.60;99.90
1546;DHT22;766;51.502;9.752;2022-10-03T16:18:08;13.60;99.90
1546;DHT22;766;51.502;9.752;2022-10-03T16:20:40;13.60;99.90
1546;DHT22;766;51.502;9.752;2022-10-03T16:23:16;13.50;99.90
1546;DHT22;766;51.502;9.752;2022-10-03T16:25:54;13.50;99.90
1546;DHT22;766;51.502;9.752;2022-10-03T16:28:29;13.30;99.90
1546;DHT22;766;51.502;9.752;2022-10-03T16:31:03;13.20;99.90
1546;DHT22;766;51.502;9.752;2022-10-03T16:33:39;13.20;99.90
1546;DHT22;766;51.502;9.752;2022-10-03T16:36:16;13.20;99.90
1546;DHT22;766;51.502;9.752;2022-10-03T16:38:53;13.10;99.90
1546;DHT22;766;51.502;9.752;2022-10-03T16:41:27;13.00;99.90
1546;DHT22;766;51.502;9.752;2022-10-03T16:43:59;12.90;99.90
1546;DHT22;766;51.502;9.752;2022-10-03T16:46:32;12.80;99.90
1546;DHT22;766;51.502;9.752;2022-10-03T16:49:08;12.70;99.90
1546;DHT22;766;51.502;9.752;2022-10-03T16:52:01;12.60;99.90
1546;DHT22;766;51.502;9.752;2022-10-03T16:54:32;12.50;99.90
1546;DHT22;766;51.502;9.752;2022-10-03T16:57:07;12.20;99.90
1546;DHT22;766;51.502;9.752;2022-10-03T16:59:41;12.10;99.90
1546;DHT22;766;51.502;9.752;2022-10-03T17:02:14;12.00;99.90
1546;DHT22;766;51.502;9.752;2022-10-03T17:04:48;12.10;99.90
1546;DHT22;766;51.502;9.752;2022-10-03T17:07:22;12.00;99.90
1546;DHT22;766;51.502;9.752;2022-10-03T17:09:52;11.90;99.90
1546;DHT22;766;51.502;9.752;2022-10-03T17:12:24;11.80;99.90
1546;DHT22;766;51.502;9.752;2022-10-03T17:14:55;11.60;99.90
1546;DHT22;766;51.502;9.752;2022-10-03T17:17:28;11.70;99.90
1546;DHT22;766;51.502;9.752;2022-10-03T17:20:00;11.60;99.90
1546;DHT22;766;51.502;9.752;2022-10-03T17:22:36;11.60;99.90
1546;DHT22;766;51.502;9.752;2022-10-03T17:25:27;11.50;99.90
1546;DHT22;766;51.502;9.752;2022-10-03T17:27:58;11.40;99.90
1546;DHT22;766;51.502;9.752;2022-10-03T17:30:33;11.40;99.90
1546;DHT22;766;51.502;9.752;2022-10-03T17:33:07;11.50;99.90
1546;DHT22;766;51.502;9.752;2022-10-03T17:35:46;11.50;99.90
1546;DHT22;766;51.502;9.752;2022-10-03T17:38:28;11.50;99.90
1546;DHT22;766;51.502;9.752;2022-10-03T17:41:21;11.60;99.90
1546;DHT22;766;51.502;9.752;2022-10-03T17:44:10;11.50;99.90
1546;DHT22;766;51.502;9.752;2022-10-03T17:46:49;11.60;99.90
1546;DHT22;766;51.502;9.752;2022-10-03T17:49:26;11.60;99.90
1546;DHT22;766;51.502;9.752;2022-10-03T17:51:58;11.40;99.90
1546;DHT22;766;51.502;9.752;2022-10-03T17:54:31;11.30;99.90
1546;DHT22;766;51.502;9.752;2022-10-03T17:57:05;11.20;99.90
1546;DHT22;766;51.502;9.752;2022-10-03T17:59:42;11.10;99.90
1546;DHT22;766;51.502;9.752;2022-10-03T18:02:18;11.20;99.90
1546;DHT22;766;51.502;9.752;2022-10-03T18:04:55;11.20;99.90
1546;DHT22;766;51.502;9.752;2022-10-03T18:07:27;11.10;99.90
1546;DHT22;766;51.502;9.752;2022-10-03T18:09:59;11.10;99.90
1546;DHT22;766;51.502;9.752;2022-10-03T18:12:31;11.10;99.90
1546;DHT22;766;51.502;9.752;2022-10-03T18:15:39;10.90;99.90
1546;DHT22;766;51.502;9.752;2022-10-03T18:18:53;10.80;99.90
1546;DHT22;766;51.502;9.752;2022-10-03T18:21:39;10.60;99.90
1546;DHT22;766;51.502;9.752;2022-10-03T18:30:11;10.70;99.90
1546;DHT22;766;51.502;9.752;2022-10-03T18:32:44;10.70;99.90
1546;DHT22;766;51.502;9.752;2022-10-03T18:35:15;10.70;99.90
1546;DHT22;766;51.502;9.752;2022-10-03T18:40:47;10.80;99.90
1546;DHT22;766;51.502;9.752;2022-10-03T18:43:30;10.80;99.90
1546;DHT22;766;51.502;9.752;2022-10-03T18:46:07;10.70;99.90
1546;DHT22;766;51.502;9.752;2022-10-03T18:48:41;10.80;99.90
1546;DHT22;766;51.502;9.752;2022-10-03T18:51:34;10.70;99.90
1546;DHT22;766;51.502;9.752;2022-10-03T18:54:13;10.60;99.90
1546;DHT22;766;51.502;9.752;2022-10-03T18:56:46;10.50;99.90
1546;DHT22;766;51.502;9.752;2022-10-03T18:59:34;10.40;99.90
1546;DHT22;766;51.502;9.752;2022-10-03T19:02:15;10.40;99.90
1546;DHT22;766;51.502;9.752;2022-10-03T19:04:51;10.50;99.90
1546;DHT22;766;51.502;9.752;2022-10-03T19:07:23;10.50;99.90
1546;DHT22;766;51.502;9.752;2022-10-03T19:10:24;10.20;99.90
1546;DHT22;766;51.502;9.752;2022-10-03T19:13:02;10.10;99.90
1546;DHT22;766;51.502;9.752;2022-10-03T19:15:53;10.30;99.90
1546;DHT22;766;51.502;9.752;2022-10-03T19:18:41;10.20;99.90
1546;DHT22;766;51.502;9.752;2022-10-03T19:21:20;10.30;99.90
1546;DHT22;766;51.502;9.752;2022-10-03T19:24:01;10.30;99.90
1546;DHT22;766;51.502;9.752;2022-10-03T19:26:45;10.20;99.90
1546;DHT22;766;51.502;9.752;2022-10-03T19:29:20;10.20;99.90
1546;DHT22;766;51.502;9.752;2022-10-03T19:32:05;10.10;99.90
1546;DHT22;766;51.502;9.752;2022-10-03T19:34:42;9.90;99.90
1546;DHT22;766;51.502;9.752;2022-10-03T19:37:15;10.10;99.90
1546;DHT22;766;51.502;9.752;2022-10-03T19:39:50;10.10;99.90
1546;DHT22;766;51.502;9.752;2022-10-03T19:42:29;10.10;99.90
1546;DHT22;766;51.502;9.752;2022-10-03T19:45:00;10.20;99.90
1546;DHT22;766;51.502;9.752;2022-10-03T19:47:32;10.30;99.90
1546;DHT22;766;51.502;9.752;2022-10-03T19:50:07;10.40;99.90
1546;DHT22;766;51.502;9.752;2022-10-03T19:52:40;10.50;99.90
1546;DHT22;766;51.502;9.752;2022-10-03T19:55:12;10.40;99.90
1546;DHT22;766;51.502;9.752;2022-10-03T19:57:44;10.30;99.90
1546;DHT22;766;51.502;9.752;2022-10-03T20:00:27;10.40;99.90
1546;DHT22;766;51.502;9.752;2022-10-03T20:03:09;10.30;99.90
1546;DHT22;766;51.502;9.752;2022-10-03T20:05:45;10.40;99.90
1546;DHT22;766;51.502;9.752;2022-10-03T20:08:22;10.30;99.90
1546;DHT22;766;51.502;9.752;2022-10-03T20:13:47;9.90;99.90
1546;DHT22;766;51.502;9.752;2022-10-03T20:16:18;9.80;99.90
1546;DHT22;766;51.502;9.752;2022-10-03T20:18:51;9.70;99.90
1546;DHT22;766;51.502;9.752;2022-10-03T20:21:25;9.80;99.90
1546;DHT22;766;51.502;9.752;2022-10-03T20:24:02;9.80;99.90
1546;DHT22;766;51.502;9.752;2022-10-03T20:26:38;9.90;99.90
1546;DHT22;766;51.502;9.752;2022-10-03T20:29:26;10.00;99.90
1546;DHT22;766;51.502;9.752;2022-10-03T20:32:00;10.00;99.90
1546;DHT22;766;51.502;9.752;2022-10-03T20:34:33;10.10;99.90
1546;DHT22;766;51.502;9.752;2022-10-03T20:37:16;10.20;99.90
1546;DHT22;766;51.502;9.752;2022-10-03T20:39:49;10.30;99.90
1546;DHT22;766;51.502;9.752;2022-10-03T20:42:21;10.30;99.90
1546;DHT22;766;51.502;9.752;2022-10-03T20:45:01;10.10;99.90
1546;DHT22;766;51.502;9.752;2022-10-03T20:47:48;10.00;99.90
1546;DHT22;766;51.502;9.752;2022-10-03T20:50:23;9.90;99.90
1546;DHT22;766;51.502;9.752;2022-10-03T20:52:54;10.00;99.90
1546;DHT22;766;51.502;9.752;2022-10-03T20:55:26;10.00;99.90
1546;DHT22;766;51.502;9.752;2022-10-03T20:58:05;10.00;99.90
1546;DHT22;766;51.502;9.752;2022-10-03T21:00:42;10.00;99.90
1546;DHT22;766;51.502;9.752;2022-10-03T21:03:20;10.10;99.90
1546;DHT22;766;51.502;9.752;2022-10-03T21:05:58;10.10;99.90
1546;DHT22;766;51.502;9.752;2022-10-03T21:08:31;10.00;99.90
1546;DHT22;766;51.502;9.752;2022-10-03T21:11:17;9.90;99.90
1546;DHT22;766;51.502;9.752;2022-10-03T21:13:50;9.80;99.90
1546;DHT22;766;51.502;9.752;2022-10-03T21:16:21;9.80;99.90
1546;DHT22;766;51.502;9.752;2022-10-03T21:18:55;9.70;99.90
1546;DHT22;766;51.502;9.752;2022-10-03T21:21:27;9.80;99.90
1546;DHT22;766;51.502;9.752;2022-10-03T21:24:05;9.70;99.90
1546;DHT22;766;51.502;9.752;2022-10-03T21:26:44;9.70;99.90